Latest Weather Observations for Nowra

IDN60901

Issued at 11:02 am EDT Thursday 21 October 2021 (issued every 10 minutes, with the page automatically refreshed every 10 minutes)

About weather observations | Map of Canberra area stations | Latest observations for Canberra area | Other Formats
Station Details ID: 068072 Name: NOWRA RAN AIR STATION AWS Lat: -34.95 Lon: 150.54 Height: 109.0 m
Data from the previous 72 hours. | See also: Recent months at Nowra
Date/Time
EDT
Temp
°C
App
Temp
°C
Dew
Point
°C
Rel
Hum
%
Delta-T
°C
Wind Press
QNH
hPa
Press
MSL
hPa
Rain since
9am
mm
Dir  Spd
km/h
Gust
km/h
Spd
kts
Gust
kts
21/10:30am 18.0 17.2 16.0 88 1.2 SSE 15 20 8 11 1017.5 1017.3 0.0
21/10:00am 17.9 17.5 16.1 89 1.1 S 13 17 7 9 1017.8 1017.6 0.0
21/09:30am 17.0 16.0 16.7 98 0.2 SSW 17 20 9 11 1017.6 1017.4 0.0
21/09:00am 17.0 15.7 16.8 99 0.1 SSW 19 26 10 14 1017.6 1017.4 11.6
21/08:30am 16.2 15.4 16.2 100 0.0 S 15 20 8 11 1017.7 1017.5 11.6
21/08:00am 15.6 15.4 15.6 100 0.0 S 11 15 6 8 1017.8 1017.6 11.6
21/07:30am 15.3 15.3 15.3 100 0.0 SSW 9 11 5 6 1017.6 1017.4 11.6
21/07:00am 14.9 14.8 14.9 100 0.0 S 9 13 5 7 1017.4 1017.2 11.6
21/06:30am 14.5 13.9 14.5 100 0.0 SSW 11 15 6 8 1017.1 1016.9 11.6
21/06:00am 14.0 13.2 14.0 100 0.0 SSW 11 13 6 7 1016.8 1016.6 11.6
21/05:30am 14.1 12.9 14.1 100 0.0 SSW 13 17 7 9 1016.7 1016.5 11.6
21/05:00am 14.1 13.7 14.1 100 0.0 SW 9 11 5 6 1016.7 1016.5 11.6
21/04:30am 13.4 12.4 13.4 100 0.0 SW 11 13 6 7 1016.7 1016.5 11.4
21/04:00am 13.6 12.3 13.6 100 0.0 SW 13 15 7 8 1016.8 1016.6 11.4
21/03:41am 13.7 12.4 13.7 100 0.0 SW 13 15 7 8 1016.9 1016.7 11.4
21/03:30am 13.9 12.7 13.9 100 0.0 SW 13 15 7 8 1017.0 1016.8 11.4
21/03:25am 13.8 12.5 13.8 100 0.0 SW 13 15 7 8 1017.0 1016.8 11.4
21/03:00am 13.8 12.9 13.8 100 0.0 SSW 11 13 6 7 1017.2 1017.0 11.4
21/02:30am 13.5 12.5 13.5 100 0.0 SW 11 11 6 6 1017.5 1017.3 11.4
21/02:00am 14.3 13.6 14.3 100 0.0 SW 11 11 6 6 1017.8 1017.6 11.4
21/01:47am 15.0 14.5 15.0 100 0.0 SSW 11 13 6 7 1018.0 1017.8 11.4
21/01:30am 15.0 14.5 15.0 100 0.0 SSW 11 13 6 7 1018.2 1018.0 11.4
21/01:17am 15.2 15.2 15.2 100 0.0 SSW 9 15 5 8 1018.3 1018.1 11.4
21/01:16am 15.2 14.8 15.2 100 0.0 SSW 11 15 6 8 1018.3 1018.1 11.4
21/01:00am 15.3 14.6 15.3 100 0.0 SSW 13 15 7 8 1018.4 1018.2 11.4
21/12:36am 15.3 14.9 15.3 100 0.0 S 11 15 6 8 1018.5 1018.3 11.4
21/12:31am 15.2 14.8 15.2 100 0.0 S 11 13 6 7 1018.5 1018.3 11.4
21/12:30am 15.2 14.8 15.2 100 0.0 S 11 13 6 7 1018.5 1018.3 11.4
21/12:00am 15.6 16.1 15.6 100 0.0 SSE 7 11 4 6 1018.7 1018.5 11.4
 
Date/Time
EDT
Temp
°C
App
Temp
°C
Dew
Point
°C
Rel
Hum
%
Delta-T
°C
Wind Press
QNH
hPa
Press
MSL
hPa
Rain since
9am
mm
Dir  Spd
km/h
Gust
km/h
Spd
kts
Gust
kts
20/11:30pm 15.8 15.6 15.8 100 0.0 SSE 11 15 6 8 1018.8 1018.6 11.2
20/11:19pm 15.7 15.1 15.7 100 0.0 ESE 13 24 7 13 1018.8 1018.6 11.0
20/11:13pm 15.8 15.6 15.8 100 0.0 SSE 11 17 6 9 1018.9 1018.7 11.0
20/11:00pm 15.8 15.3 15.8 100 0.0 SSE 13 19 7 10 1019.0 1018.8 10.4
20/10:59pm 15.8 15.6 15.8 100 0.0 SSE 11 19 6 10 1019.0 1018.8 9.8
20/10:45pm 15.3 15.3 15.3 100 0.0 SSE 9 15 5 8 1019.0 1018.8 7.8
20/10:30pm 15.1 14.7 15.1 100 0.0 ESE 11 15 6 8 1019.1 1018.9 7.4
20/10:24pm 15.1 14.3 15.1 100 0.0 ESE 13 15 7 8 1019.1 1018.9 6.8
20/10:00pm 15.6 14.6 15.6 100 0.0 SE 15 20 8 11 1019.1 1018.9 5.4
20/09:45pm 15.8 15.6 15.8 100 0.0 SE 11 13 6 7 1019.0 1018.8 5.4
20/09:39pm 15.8 15.6 15.8 100 0.0 SE 11 15 6 8 1019.0 1018.8 5.4
20/09:30pm 15.8 15.3 15.8 100 0.0 SE 13 20 7 11 1019.0 1018.8 5.4
20/09:23pm 15.9 15.4 15.9 100 0.0 SSE 13 19 7 10 1019.0 1018.8 5.2
20/09:13pm 16.0 15.9 16.0 100 0.0 SSE 11 15 6 8 1018.9 1018.7 4.6
20/09:00pm 16.0 16.3 16.0 100 0.0 SSE 9 13 5 7 1018.8 1018.6 3.6
20/08:58pm 16.0 16.3 16.0 100 0.0 SSE 9 13 5 7 1018.8 1018.6 3.6
20/08:39pm 16.0 15.2 16.0 100 0.0 SSE 15 20 8 11 1018.6 1018.4 3.4
20/08:30pm 16.0 14.4 16.0 100 0.0 SSE 19 26 10 14 1018.5 1018.3 3.4
20/08:24pm 16.0 14.4 16.0 100 0.0 SSE 19 24 10 13 1018.4 1018.2 3.4
20/08:14pm 16.2 15.4 16.2 100 0.0 SSE 15 19 8 10 1018.2 1018.0 3.4
20/08:08pm 16.2 15.0 16.2 100 0.0 S 17 20 9 11 1018.2 1018.0 3.4
20/08:00pm 16.2 15.0 16.2 100 0.0 SSE 17 30 9 16 1018.0 1017.8 3.4
20/07:30pm 16.2 14.5 16.2 100 0.0 SSE 20 26 11 14 1017.9 1017.7 3.4
20/07:20pm 16.2 15.0 16.2 100 0.0 SSE 17 26 9 14 1017.9 1017.7 3.4
20/07:14pm 16.3 14.6 16.3 100 0.0 S 20 32 11 17 1017.9 1017.7 3.4
20/07:02pm 16.5 14.1 16.3 99 0.1 S 24 37 13 20 1017.7 1017.5 3.4
20/07:00pm 16.6 14.0 15.8 95 0.5 S 24 37 13 20 1017.7 1017.5 2.6
20/06:33pm 17.3 14.8 15.1 87 1.3 SSE 22 30 12 16 1017.5 1017.3 1.4
20/06:30pm 17.4 15.0 15.4 88 1.2 SSE 22 30 12 16 1017.5 1017.3 1.4
20/06:18pm 17.7 15.8 15.7 88 1.2 S 20 32 11 17 1017.3 1017.1 1.4
20/06:00pm 17.8 15.5 15.6 87 1.3 S 22 33 12 18 1017.1 1016.9 1.4
20/05:30pm 17.9 14.5 15.7 87 1.3 SSE 28 37 15 20 1017.1 1016.9 1.4
20/05:00pm 17.6 15.7 16.6 94 0.6 SSE 22 33 12 18 1017.1 1016.9 1.4
20/04:45pm 17.8 15.3 17.2 96 0.4 SSE 26 41 14 22 1017.1 1016.9 1.4
20/04:30pm 17.3 16.0 17.3 100 0.0 SSE 20 28 11 15 1017.1 1016.9 1.4
20/04:27pm 16.8 14.9 16.6 99 0.1 SSE 22 32 12 17 1017.1 1016.9 1.4
20/04:14pm 16.7 13.0 15.1 90 0.9 S 28 46 15 25 1017.1 1016.9 1.2
20/04:12pm 17.0 13.9 14.6 86 1.4 S 24 46 13 25 1017.1 1016.9 0.8
20/04:00pm 19.4 17.6 15.9 80 2.1 SSE 20 28 11 15 1017.1 1016.9 0.0
20/03:30pm 18.7 14.8 14.4 76 2.5 SSE 28 37 15 20 1017.2 1017.0 0.0
20/03:00pm 18.5 15.2 14.0 75 2.6 SSE 24 32 13 17 1017.4 1017.2 0.0
20/02:30pm 20.3 16.2 13.7 66 3.8 SE 28 39 15 21 1017.5 1017.3 0.0
20/02:00pm 19.8 16.7 14.6 72 3.0 SSE 24 35 13 19 1017.5 1017.3 0.0
20/01:30pm 19.5 15.6 13.4 68 3.5 S 26 37 14 20 1017.7 1017.5 0.0
20/01:00pm 17.8 13.7 13.7 77 2.3 SSE 28 41 15 22 1018.0 1017.8 0.0
20/12:47pm 18.8 14.7 13.9 73 2.8 S 28 37 15 20 1018.2 1018.0 0.0
20/12:30pm 18.3 13.1 12.7 70 3.1 SSE 32 43 17 23 1018.2 1018.0 0.0
20/12:00pm 18.9 15.4 13.5 71 3.1 SSE 24 37 13 20 1018.5 1018.3 0.0
20/11:43am 18.5 14.4 13.8 74 2.7 SSE 28 37 15 20 1018.6 1018.4 0.0
20/11:30am 18.1 13.8 13.2 73 2.8 SSE 28 37 15 20 1018.8 1018.6 0.0
20/11:12am 18.7 16.3 14.4 76 2.5 S 20 30 11 16 1019.0 1018.8 0.0
20/11:00am 18.2 15.8 14.5 79 2.1 S 20 30 11 16 1019.1 1018.9 0.0
20/10:30am 16.5 13.6 14.0 85 1.4 S 22 30 12 16 1019.2 1019.0 0.0
20/10:00am 16.9 14.8 15.2 90 1.0 S 20 30 11 16 1019.1 1018.9 0.0
20/09:30am 16.0 15.2 15.0 94 0.6 S 13 20 7 11 1019.0 1018.8 0.0
20/09:12am 15.8 15.0 15.2 96 0.3 S 13 17 7 9 1018.6 1018.4 0.0
20/09:00am 15.4 14.6 15.2 99 0.1 S 13 19 7 10 1018.4 1018.2 3.8
20/08:30am 14.7 12.6 14.7 100 0.0 S 19 26 10 14 1018.3 1018.1 3.8
20/08:00am 14.0 11.7 14.0 100 0.0 S 19 24 10 13 1017.9 1017.7 3.8
20/07:30am 14.2 12.6 14.0 99 0.1 S 15 19 8 10 1017.8 1017.6 3.2
20/07:00am 14.0 12.4 13.8 99 0.1 S 15 20 8 11 1017.5 1017.3 3.2
20/06:30am 13.2 10.9 13.0 99 0.1 SSW 17 20 9 11 1017.1 1016.9 3.2
20/06:00am 12.9 9.2 12.7 99 0.1 SSW 24 39 13 21 1016.4 1016.2 2.6
20/05:30am 12.7 9.9 12.5 99 0.1 SW 19 28 10 15 1016.1 1015.9 1.6
20/05:00am 12.5 10.8 12.3 99 0.1 S 13 22 7 12 1016.6 1016.4 1.0
20/04:30am 12.4 9.1 11.5 94 0.5 SSW 20 24 11 13 1016.0 1015.8 0.8
20/04:00am 12.8 8.8 10.3 85 1.3 SSW 22 33 12 18 1016.0 1015.8 0.2
20/03:30am 12.8 8.8 10.3 85 1.3 SSW 22 30 12 16 1015.9 1015.7 0.2
20/03:00am 12.9 10.5 10.1 83 1.4 SSW 13 26 7 14 1016.1 1015.9 0.2
20/02:30am 12.6 9.3 10.8 89 0.9 SW 19 28 10 15 1016.1 1015.9 0.2
20/02:00am 12.4 9.0 10.6 89 0.9 SW 19 24 10 13 1016.5 1016.3 0.0
20/01:30am 12.9 9.1 9.7 81 1.6 SSW 20 28 11 15 1017.0 1016.8 0.0
20/01:00am 13.3 9.2 8.8 74 2.3 SW 20 28 11 15 1017.1 1016.9 0.0
20/12:30am 13.6 7.2 8.4 71 2.6 SSW 32 48 17 26 1017.7 1017.5 0.0
20/12:26am 13.7 7.9 8.1 69 2.8 SSW 28 48 15 26 1017.8 1017.6 0.0
20/12:00am 13.6 8.4 7.2 65 3.1 SSW 24 41 13 22 1017.9 1017.7 0.0
 
Date/Time
EDT
Temp
°C
App
Temp
°C
Dew
Point
°C
Rel
Hum
%
Delta-T
°C
Wind Press
QNH
hPa
Press
MSL
hPa
Rain since
9am
mm
Dir  Spd
km/h
Gust
km/h
Spd
kts
Gust
kts
19/11:30pm 13.3 8.9 6.6 64 3.2 SSW 19 28 10 15 1017.9 1017.7 0.0
19/11:00pm 13.1 9.0 6.0 62 3.4 SSW 17 24 9 13 1018.1 1017.9 0.0
19/10:30pm 13.5 9.4 6.1 61 3.5 SW 17 26 9 14 1018.3 1018.1 0.0
19/10:00pm 13.1 10.2 6.5 64 3.2 SW 11 17 6 9 1018.7 1018.5 0.0
19/09:30pm 12.7 9.8 6.3 65 3.1 WSW 11 17 6 9 1018.9 1018.7 0.0
19/09:00pm 12.8 9.5 6.2 64 3.1 WSW 13 19 7 10 1018.9 1018.7 0.0
19/08:30pm 12.6 9.2 5.8 63 3.2 WSW 13 22 7 12 1018.9 1018.7 0.0
19/08:00pm 12.4 9.1 6.2 66 2.9 SW 13 17 7 9 1018.7 1018.5 0.0
19/07:30pm 13.0 8.5 6.1 63 3.3 SW 19 26 10 14 1018.6 1018.4 0.0
19/07:00pm 13.5 7.7 6.1 61 3.5 SSW 26 35 14 19 1018.5 1018.3 0.0
19/06:30pm 13.9 9.5 7.4 65 3.2 SSW 20 26 11 14 1018.3 1018.1 0.0
19/06:00pm 14.5 9.4 7.8 64 3.3 S 24 39 13 21 1018.1 1017.9 0.0
19/05:30pm 15.7 9.6 8.2 61 3.8 S 30 41 16 22 1017.6 1017.4 0.0
19/05:00pm 15.7 9.4 7.5 58 4.1 S 30 41 16 22 1017.4 1017.2 0.0
19/04:30pm 16.4 9.7 7.3 55 4.6 S 32 43 17 23 1017.0 1016.8 0.0
19/04:00pm 16.6 11.8 8.8 60 4.0 S 24 32 13 17 1016.9 1016.7 0.0
19/03:30pm 16.0 12.0 9.0 63 3.6 S 20 32 11 17 1017.0 1016.8 0.0
19/03:00pm 14.2 10.1 11.5 84 1.4 SSW 24 33 13 18 1017.2 1017.0 0.0
19/02:30pm 13.8 8.4 8.2 69 2.8 S 26 33 14 18 1017.0 1016.8 0.0
19/02:00pm 13.4 7.8 8.9 74 2.3 S 28 35 15 19 1017.1 1016.9 0.0
19/01:51pm 13.1 6.7 8.6 74 2.3 SSW 32 43 17 23 1017.1 1016.9 0.0
19/01:30pm 13.2 7.8 9.6 79 1.8 S 28 39 15 21 1017.2 1017.0 0.0
19/01:00pm 14.0 9.7 10.8 81 1.7 S 24 35 13 19 1017.0 1016.8 0.0
19/12:30pm 13.6 9.2 10.4 81 1.7 S 24 33 13 18 1017.1 1016.9 0.0
19/12:00pm 14.2 10.0 11.0 81 1.7 S 24 32 13 17 1017.1 1016.9 0.0
19/11:30am 15.1 11.5 11.7 80 1.8 S 22 30 12 16 1016.9 1016.7 0.0
19/11:00am 15.5 12.2 12.8 84 1.5 S 22 32 12 17 1017.1 1016.9 0.0
19/10:30am 16.0 12.4 11.8 76 2.3 S 22 30 12 16 1017.0 1016.8 0.0
19/10:00am 15.6 12.2 11.4 76 2.3 S 20 30 11 16 1017.2 1017.0 0.0
19/09:30am 16.6 13.7 12.2 75 2.4 S 19 26 10 14 1016.9 1016.7 0.0
19/09:00am 15.9 12.4 12.3 79 2.0 SSE 22 33 12 18 1016.8 1016.6 0.0
19/08:42am 16.1 12.5 13.2 83 1.6 S 24 32 13 17 1016.7 1016.5 0.0
19/08:30am 15.8 11.6 12.5 81 1.8 S 26 35 14 19 1016.5 1016.3 0.0
19/08:00am 15.2 12.6 13.2 88 1.1 S 19 28 10 15 1016.2 1016.0 0.0
19/07:30am 14.7 11.1 12.9 89 1.0 S 24 35 13 19 1015.8 1015.6 0.0
19/07:00am 14.5 11.6 12.4 87 1.1 S 19 26 10 14 1015.1 1014.9 0.0
19/06:30am 15.5 11.7 11.3 76 2.3 S 22 28 12 15 1014.9 1014.7 0.0
19/06:00am 15.6 13.0 9.3 66 3.3 NW 13 15 7 8 1014.0 1013.8 0.0
19/05:30am 15.2 12.5 9.1 67 3.1 NW 13 15 7 8 1013.9 1013.7 0.0
19/05:00am 15.6 12.3 9.5 67 3.2 NW 17 20 9 11 1013.5 1013.3 0.0
19/04:30am 15.4 13.0 10.2 71 2.7 NW 13 17 7 9 1013.3 1013.1 0.0
19/04:00am 15.4 12.5 11.0 75 2.4 NW 17 19 9 10 1013.3 1013.1 0.0
19/03:30am 15.3 13.3 11.5 78 2.1 NNW 13 15 7 8 1013.6 1013.4 0.0
19/03:00am 15.2 13.6 11.6 79 1.9 NW 11 15 6 8 1014.1 1013.9 0.0
19/02:30am 15.3 14.0 11.1 76 2.3 NW 9 11 5 6 1014.5 1014.3 0.0
19/02:00am 15.2 15.3 11.4 78 2.0 NNW 2 7 1 4 1014.7 1014.5 0.0
19/01:30am 15.7 15.0 11.3 75 2.4 NNW 6 7 3 4 1015.0 1014.8 0.0
19/01:00am 15.9 14.9 11.1 73 2.6 NW 7 9 4 5 1015.3 1015.1 0.0
19/12:30am 15.4 16.1 12.3 82 1.7 CALM 0 0 0 0 1015.2 1015.0 0.0
19/12:00am 15.8 16.6 12.5 81 1.8 CALM 0 7 0 4 1015.7 1015.5 0.0
 
Date/Time
EDT
Temp
°C
App
Temp
°C
Dew
Point
°C
Rel
Hum
%
Delta-T
°C
Wind Press
QNH
hPa
Press
MSL
hPa
Rain since
9am
mm
Dir  Spd
km/h
Gust
km/h
Spd
kts
Gust
kts
18/11:30pm 15.3 14.5 13.0 86 1.3 WSW 9 13 5 7 1015.7 1015.5 0.0
18/11:00pm 14.9 14.3 13.6 92 0.7 W 9 11 5 6 1015.4 1015.2 0.0
18/10:30pm 14.7 14.0 13.1 90 0.9 W 9 11 5 6 1015.6 1015.4 0.0
18/10:00pm 13.8 13.2 11.8 88 1.1 W 6 11 3 6 1015.6 1015.4 0.0
18/09:30pm 15.3 15.2 13.3 88 1.1 WSW 6 9 3 5 1015.5 1015.3 0.0
18/09:00pm 15.1 14.1 12.2 83 1.6 SSW 9 13 5 7 1015.2 1015.0 0.0
18/08:30pm 14.8 13.7 11.9 83 1.6 S 9 11 5 6 1014.7 1014.5 0.0
18/08:00pm 16.3 15.7 12.3 77 2.2 SSE 7 9 4 5 1014.4 1014.2 0.0
18/07:30pm 17.7 16.9 11.7 68 3.3 ESE 7 11 4 6 1013.9 1013.7 0.0
18/07:00pm 18.3 16.1 10.9 62 4.0 ENE 13 17 7 9 1013.5 1013.3 0.0
18/06:30pm 19.3 17.2 9.8 54 5.1 ENE 11 19 6 10 1013.3 1013.1 0.0
18/06:00pm 20.0 16.5 8.7 48 5.9 E 17 22 9 12 1013.1 1012.9 0.0
18/05:30pm 20.9 17.3 8.2 44 6.7 ENE 17 22 9 12 1012.6 1012.5 0.0
18/05:00pm 20.9 17.5 9.2 47 6.2 ENE 17 20 9 11 1012.3 1012.2 0.0
18/04:30pm 21.5 17.3 8.4 43 6.9 E 20 26 11 14 1012.2 1012.1 0.0
18/04:00pm 22.9 18.5 9.0 41 7.5 ESE 22 28 12 15 1012.1 1012.0 0.0
18/03:30pm 24.2 19.5 9.4 39 8.1 E 24 32 13 17 1012.0 1011.9 0.0
18/03:00pm 26.2 22.4 5.7 27 10.6 WSW 15 28 8 15 1012.0 1011.9 0.0
18/02:30pm 25.2 21.1 4.3 26 10.5 WSW 15 33 8 18 1012.3 1012.2 0.0
18/02:00pm 24.8 20.4 4.5 27 10.2 NW 17 30 9 16 1012.8 1012.6 0.0
18/01:30pm 24.6 21.0 6.8 32 9.3 SW 15 22 8 12 1013.0 1012.8 0.0
18/01:00pm 23.8 20.4 6.1 32 9.1 WSW 13 20 7 11 1013.5 1013.3 0.0
18/12:30pm 23.2 18.3 4.2 29 9.4 W 19 26 10 14 1013.9 1013.7 0.0
18/12:00pm 23.1 18.9 5.5 32 8.9 WNW 17 32 9 17 1014.3 1014.1 0.0
18/11:30am 22.9 19.3 4.9 31 9.0 NW 13 30 7 16 1014.7 1014.5 0.0

Latest Capital City Observations: Canberra | Sydney | Melbourne | Brisbane | Adelaide | Perth | Hobart | Darwin

Other formats

Comma delimited format used in spreadsheet applications
http://www.bom.gov.au/fwo/IDN60903/IDN60903.94750.axf

JavaScript Object Notation format (JSON) in row-major order
http://www.bom.gov.au/fwo/IDN60903/IDN60903.94750.json

Data quality

Most of these data are generated automatically and are frequently updated. Quality checks on data are not normally performed. It is possible for incorrect values to appear. Refer to information at About Latest Weather Observations and please check the disclaimer before using these data.